Time;durP1;ratioP1;P1;durP2;ratioP2;P2;SDS_P1;SDS_P2;PMS_P1;PMS_P2;Temp;Humidity;BMP_temperature;BMP_pressure;BME280_temperature;BME280_humidity;BME280_pressure;Samples;Min_cycle;Max_cycle;Signal;HPM_P1;HPM_P2
2023/06/18 00:02:41;;;;;;;9.73;6.93;;;18.60;99.90;;;;;;5068774;28;20051;-63
2023/06/18 00:05:45;;;;;;;8.98;6.93;;;18.50;99.90;;;;;;5069625;28;20039;-63
2023/06/18 00:08:49;;;;;;;14.50;6.40;;;18.60;99.90;;;;;;5069626;28;20550;-63
2023/06/18 00:11:53;;;;;;;13.05;6.85;;;18.60;99.90;;;;;;5068844;28;20039;-64
2023/06/18 00:14:57;;;;;;;10.60;5.97;;;18.70;99.90;;;;;;5069566;28;20051;-63
2023/06/18 00:18:01;;;;;;;8.35;5.85;;;18.70;99.90;;;;;;5069719;28;20517;-63
2023/06/18 00:21:07;;;;;;;9.18;7.05;;;18.70;99.90;;;;;;5068891;28;20051;-63
2023/06/18 00:24:11;;;;;;;9.88;6.47;;;18.70;99.90;;;;;;5069470;28;20051;-63
2023/06/18 00:27:15;;;;;;;12.90;7.20;;;18.70;99.90;;;;;;5069101;28;20047;-63
2023/06/18 00:30:19;;;;;;;10.57;6.38;;;18.70;99.90;;;;;;5069166;28;20048;-63
2023/06/18 00:33:24;;;;;;;11.52;7.22;;;18.70;99.90;;;;;;5068909;28;20063;-64
2023/06/18 00:36:29;;;;;;;11.77;6.95;;;18.60;99.90;;;;;;5068219;28;20048;-63
2023/06/18 00:39:33;;;;;;;13.25;7.13;;;18.60;99.90;;;;;;5069003;28;20051;-62
2023/06/18 00:42:39;;;;;;;9.85;7.18;;;18.50;99.90;;;;;;5068654;28;20506;-64
2023/06/18 00:45:45;;;;;;;8.15;6.25;;;18.50;99.90;;;;;;5068893;28;20127;-62
2023/06/18 00:48:49;;;;;;;13.25;6.68;;;18.40;99.90;;;;;;5072085;28;20044;-63
2023/06/18 00:51:53;;;;;;;9.48;6.30;;;18.40;99.90;;;;;;5071929;28;20408;-63
2023/06/18 00:54:57;;;;;;;9.77;7.10;;;18.30;99.90;;;;;;5072333;28;20411;-64
2023/06/18 00:58:03;;;;;;;9.77;6.72;;;18.30;99.90;;;;;;5071326;28;20505;-63
2023/06/18 01:01:08;;;;;;;12.43;7.30;;;18.30;99.90;;;;;;5071794;28;20524;-64
2023/06/18 01:04:12;;;;;;;13.60;7.15;;;18.30;99.90;;;;;;5072374;28;20494;-63
2023/06/18 01:07:17;;;;;;;13.65;8.15;;;18.20;99.90;;;;;;5072125;28;20047;-63
2023/06/18 01:10:21;;;;;;;19.52;9.30;;;18.20;99.90;;;;;;5072095;28;20048;-63
2023/06/18 01:13:25;;;;;;;11.10;8.88;;;18.10;99.90;;;;;;5071887;28;20040;-63
2023/06/18 01:16:30;;;;;;;10.88;8.88;;;18.00;99.90;;;;;;5072243;28;20039;-62
2023/06/18 01:19:47;;;;;;;10.07;8.63;;;18.40;99.90;;;;;;5072400;28;20494;-62
2023/06/18 01:23:27;;;;;;;13.88;8.57;;;17.80;99.90;;;;;;5071089;28;20047;-63
2023/06/18 01:26:32;;;;;;;12.13;8.07;;;17.80;99.90;;;;;;5071008;28;20035;-63
2023/06/18 01:29:39;;;;;;;13.07;8.20;;;17.70;99.90;;;;;;5071872;28;20066;-64
2023/06/18 01:32:43;;;;;;;12.85;9.00;;;17.60;99.90;;;;;;5071259;28;20517;-62
2023/06/18 01:35:48;;;;;;;10.18;8.30;;;17.60;99.90;;;;;;5070821;28;20044;-63
2023/06/18 01:38:59;;;;;;;12.88;8.95;;;17.60;99.90;;;;;;5071731;28;20044;-63
2023/06/18 01:42:25;;;;;;;12.73;8.73;;;17.60;99.90;;;;;;5070173;28;20047;-63
2023/06/18 01:45:35;;;;;;;11.73;8.60;;;17.40;99.90;;;;;;5071161;28;20044;-61
2023/06/18 01:48:51;;;;;;;9.60;7.72;;;17.40;99.90;;;;;;5071727;28;20052;-64
2023/06/18 01:52:00;;;;;;;12.63;8.50;;;17.40;99.90;;;;;;5070988;28;20047;-64
2023/06/18 01:55:05;;;;;;;13.30;8.70;;;17.30;99.90;;;;;;5071698;28;20609;-63
2023/06/18 01:58:10;;;;;;;11.90;8.68;;;17.30;99.90;;;;;;5071008;28;20054;-63
2023/06/18 02:01:14;;;;;;;11.25;8.85;;;17.30;99.90;;;;;;5069941;28;20043;-63
2023/06/18 02:04:18;;;;;;;16.30;8.95;;;17.30;99.90;;;;;;5071252;28;20506;-63
2023/06/18 02:07:22;;;;;;;12.27;9.73;;;17.30;99.90;;;;;;5071105;28;20036;-63
2023/06/18 02:10:26;;;;;;;17.13;9.88;;;17.30;99.90;;;;;;5071135;28;20398;-63
2023/06/18 02:13:30;;;;;;;12.07;9.85;;;17.30;99.90;;;;;;5070535;28;20039;-63
2023/06/18 02:16:34;;;;;;;14.40;11.30;;;17.20;99.90;;;;;;5070935;28;20108;-63
2023/06/18 02:19:38;;;;;;;16.42;13.45;;;17.10;99.90;;;;;;5071026;28;20501;-63
2023/06/18 02:22:42;;;;;;;21.65;15.50;;;17.00;99.90;;;;;;5070431;28;20052;-63
2023/06/18 02:25:48;;;;;;;20.65;14.45;;;16.90;99.90;;;;;;5070732;28;20047;-63
2023/06/18 02:28:52;;;;;;;21.50;14.27;;;16.90;99.90;;;;;;5069682;28;20047;-62
2023/06/18 02:31:56;;;;;;;26.63;13.52;;;16.90;99.90;;;;;;5069302;28;20059;-64
2023/06/18 02:35:01;;;;;;;17.98;14.13;;;16.80;99.90;;;;;;5069551;28;20055;-63
2023/06/18 02:38:04;;;;;;;16.85;13.35;;;16.80;99.90;;;;;;5070413;28;20043;-63
2023/06/18 02:41:09;;;;;;;18.02;14.02;;;16.80;99.90;;;;;;5069267;28;20044;-62
2023/06/18 02:44:13;;;;;;;19.77;13.65;;;16.80;99.90;;;;;;5070507;28;20035;-62
2023/06/18 02:47:17;;;;;;;15.98;11.77;;;16.80;99.90;;;;;;5070663;28;20031;-63
2023/06/18 02:50:21;;;;;;;19.92;12.50;;;16.80;99.90;;;;;;5070414;28;20036;-63
2023/06/18 02:53:24;;;;;;;20.75;12.13;;;16.70;99.90;;;;;;5069033;28;20047;-63
2023/06/18 02:56:29;;;;;;;17.52;12.48;;;16.70;99.90;;;;;;5069527;28;20418;-64
2023/06/18 02:59:33;;;;;;;20.02;12.35;;;16.70;99.90;;;;;;5069769;28;20044;-63
2023/06/18 03:02:41;;;;;;;19.00;11.68;;;16.70;99.90;;;;;;5069053;28;20047;-62
2023/06/18 03:05:49;;;;;;;14.70;11.73;;;16.70;99.90;;;;;;5069380;28;20138;-63
2023/06/18 03:08:53;;;;;;;16.27;12.80;;;16.70;99.90;;;;;;5069189;28;20040;-63
2023/06/18 03:11:57;;;;;;;15.30;11.13;;;16.70;99.90;;;;;;5068913;28;20051;-64
2023/06/18 03:15:01;;;;;;;16.85;12.43;;;16.70;99.90;;;;;;5069901;28;20047;-63
2023/06/18 03:18:07;;;;;;;17.95;12.73;;;16.70;99.90;;;;;;5068789;28;20047;-64
2023/06/18 03:21:12;;;;;;;16.02;12.05;;;16.60;99.90;;;;;;5068920;28;20063;-63
2023/06/18 03:24:17;;;;;;;14.85;12.00;;;16.60;99.90;;;;;;5069648;28;20039;-63
2023/06/18 03:27:23;;;;;;;15.68;13.10;;;16.50;99.90;;;;;;5069025;28;20055;-63
2023/06/18 03:30:27;;;;;;;19.30;13.52;;;16.50;99.90;;;;;;5068913;28;20051;-64
2023/06/18 03:33:32;;;;;;;18.27;13.25;;;16.40;99.90;;;;;;5068521;28;20039;-63
2023/06/18 03:36:39;;;;;;;22.70;15.65;;;16.30;99.90;;;;;;5068975;28;20039;-63
2023/06/18 03:39:44;;;;;;;24.60;16.48;;;16.20;99.90;;;;;;5068858;28;20043;-63
2023/06/18 03:42:50;;;;;;;20.33;14.68;;;16.10;99.90;;;;;;5068324;28;20418;-63
2023/06/18 03:45:59;;;;;;;22.77;16.23;;;16.00;99.90;;;;;;5068994;28;20407;-63
2023/06/18 03:49:04;;;;;;;22.13;16.35;;;15.90;99.90;;;;;;5068953;28;20530;-63
2023/06/18 03:52:09;;;;;;;22.15;16.58;;;15.90;99.90;;;;;;5067981;28;20553;-63
2023/06/18 03:55:15;;;;;;;20.92;14.90;;;16.00;99.90;;;;;;5069467;28;20039;-62
2023/06/18 03:58:19;;;;;;;20.15;14.18;;;16.10;99.90;;;;;;5068686;28;20052;-63
2023/06/18 04:01:24;;;;;;;18.60;13.70;;;16.10;99.90;;;;;;5068286;28;20043;-63
2023/06/18 04:04:28;;;;;;;16.83;12.23;;;16.20;99.90;;;;;;5068499;28;20044;-62
2023/06/18 04:07:33;;;;;;;18.95;13.27;;;16.30;99.90;;;;;;5069597;28;20040;-63
2023/06/18 04:10:37;;;;;;;17.52;12.35;;;16.40;99.90;;;;;;5068855;28;20044;-63
2023/06/18 04:13:42;;;;;;;15.25;12.13;;;16.40;99.90;;;;;;5068297;28;20048;-63
2023/06/18 04:16:48;;;;;;;21.67;12.18;;;16.50;99.90;;;;;;5068507;28;20043;-64
2023/06/18 04:19:53;;;;;;;17.58;12.93;;;16.70;99.90;;;;;;5068353;28;21094;-63
2023/06/18 04:22:58;;;;;;;18.63;13.10;;;16.80;99.90;;;;;;5071682;28;20419;-63
2023/06/18 04:26:02;;;;;;;17.13;13.35;;;16.80;99.90;;;;;;5072083;28;20043;-63
2023/06/18 04:29:07;;;;;;;20.05;12.93;;;16.90;99.90;;;;;;5073145;28;20059;-63
2023/06/18 04:32:12;;;;;;;19.80;12.98;;;17.70;99.90;;;;;;5069533;28;20044;-58
2023/06/18 04:35:17;;;;;;;16.65;12.25;;;18.60;99.90;;;;;;5071889;28;20066;-63
2023/06/18 04:38:21;;;;;;;16.23;10.25;;;19.40;99.90;;;;;;5072576;28;20059;-63
2023/06/18 04:41:26;;;;;;;18.25;12.18;;;20.40;99.90;;;;;;5071102;28;20051;-63
2023/06/18 04:44:30;;;;;;;19.45;12.32;;;20.90;99.90;;;;;;5071720;28;20059;-62
2023/06/18 04:47:34;;;;;;;16.88;11.82;;;21.20;99.90;;;;;;5071530;28;20106;-58
2023/06/18 04:50:39;;;;;;;16.38;12.38;;;21.80;99.90;;;;;;5071467;28;20060;-64
2023/06/18 04:53:44;;;;;;;18.08;12.05;;;22.40;99.90;;;;;;5071549;28;20043;-61
2023/06/18 04:56:50;;;;;;;15.80;12.32;;;22.80;99.90;;;;;;5072067;28;20087;-63
2023/06/18 04:59:54;;;;;;;21.05;13.40;;;23.60;99.90;;;;;;5071897;28;20055;-63
2023/06/18 05:03:00;;;;;;;16.42;11.85;;;23.20;99.90;;;;;;5071252;28;20048;-58
2023/06/18 05:06:04;;;;;;;18.13;10.88;;;23.80;99.90;;;;;;5071576;28;20044;-64
2023/06/18 05:09:10;;;;;;;15.60;11.65;;;24.70;99.90;;;;;;5071371;28;20419;-63
2023/06/18 05:12:14;;;;;;;15.70;11.18;;;25.40;99.90;;;;;;5071316;28;20246;-63
2023/06/18 05:15:19;;;;;;;15.32;11.45;;;25.80;99.90;;;;;;5071236;28;20048;-64
2023/06/18 05:18:23;;;;;;;12.98;9.77;;;26.20;99.90;;;;;;5071557;28;20063;-58
2023/06/18 05:21:27;;;;;;;12.88;10.60;;;26.40;99.90;;;;;;5071146;28;20053;-58
2023/06/18 05:24:32;;;;;;;12.18;9.88;;;26.50;99.90;;;;;;5071160;28;20043;-63
2023/06/18 05:27:36;;;;;;;11.60;8.85;;;26.60;99.90;;;;;;5072370;28;20529;-63
2023/06/18 05:30:41;;;;;;;13.82;9.27;;;26.70;99.90;;;;;;5071327;28;20059;-64
2023/06/18 05:33:46;;;;;;;13.57;9.52;;;25.40;99.90;;;;;;5070706;28;20039;-58
2023/06/18 05:36:50;;;;;;;11.10;8.50;;;25.20;99.90;;;;;;5071239;28;20072;-61
2023/06/18 05:39:54;;;;;;;10.40;8.13;;;25.10;99.90;;;;;;5071515;28;20506;-64
2023/06/18 05:43:00;;;;;;;12.77;7.63;;;25.20;99.90;;;;;;5070982;28;20048;-64
2023/06/18 05:46:07;;;;;;;10.55;7.45;;;25.40;99.90;;;;;;5071062;28;20398;-63
2023/06/18 05:49:13;;;;;;;11.57;8.05;;;25.60;99.90;;;;;;5070786;28;20055;-62
2023/06/18 05:52:17;;;;;;;11.15;8.23;;;25.00;99.90;;;;;;5070680;28;20043;-59
2023/06/18 05:55:22;;;;;;;8.57;7.43;;;24.40;99.90;;;;;;5070462;28;20422;-63
2023/06/18 05:58:26;;;;;;;10.05;7.93;;;25.10;99.90;;;;;;5071457;28;20059;-63
2023/06/18 06:01:33;;;;;;;11.50;7.85;;;25.30;99.90;;;;;;5071042;28;20525;-63
2023/06/18 06:04:37;;;;;;;11.10;8.13;;;25.20;99.90;;;;;;5070439;28;20399;-62
2023/06/18 06:07:42;;;;;;;11.75;7.85;;;25.30;99.90;;;;;;5070445;28;20043;-64
2023/06/18 06:10:48;;;;;;;13.30;8.25;;;25.70;99.90;;;;;;5070100;28;20232;-64
2023/06/18 06:13:53;;;;;;;14.40;8.63;;;25.80;99.90;;;;;;5070091;28;20039;-64
2023/06/18 06:16:57;;;;;;;11.50;7.28;;;25.30;99.90;;;;;;5069864;28;20051;-64
2023/06/18 06:20:01;;;;;;;9.48;6.82;;;25.70;99.90;;;;;;5069941;28;20585;-64
2023/06/18 06:23:05;;;;;;;8.63;7.13;;;25.90;99.90;;;;;;5069291;28;20371;-62
2023/06/18 06:26:10;;;;;;;9.93;7.78;;;24.30;99.90;;;;;;5069727;28;20502;-63
2023/06/18 06:29:15;;;;;;;8.15;6.78;;;24.40;99.90;;;;;;5070045;28;20067;-64
2023/06/18 06:32:19;;;;;;;10.25;6.70;;;25.20;99.90;;;;;;5070485;28;20407;-64
2023/06/18 06:35:23;;;;;;;12.30;7.60;;;26.00;99.90;;;;;;5069544;28;20502;-64
2023/06/18 06:38:29;;;;;;;8.85;6.97;;;26.40;99.90;;;;;;5069543;28;20047;-60
2023/06/18 06:41:34;;;;;;;9.73;6.93;;;26.30;99.90;;;;;;5069397;28;20052;-64
2023/06/18 06:44:41;;;;;;;10.80;6.70;;;26.40;99.90;;;;;;5069576;28;20052;-64
2023/06/18 06:48:08;;;;;;;11.32;6.70;;;25.90;99.90;;;;;;5070161;28;20510;-64
2023/06/18 06:51:35;;;;;;;11.65;6.53;;;24.80;99.90;;;;;;5071931;28;20047;-62
2023/06/18 06:54:50;;;;;;;9.70;6.25;;;25.80;99.90;;;;;;5069273;28;20051;-64
2023/06/18 06:57:56;;;;;;;9.32;6.97;;;26.20;99.90;;;;;;5069985;28;20051;-64
2023/06/18 07:01:00;;;;;;;9.65;6.38;;;25.50;99.90;;;;;;5069319;28;20048;-63
2023/06/18 07:04:04;;;;;;;8.70;6.38;;;26.50;99.90;;;;;;5069906;28;20043;-60
2023/06/18 07:07:08;;;;;;;9.30;6.22;;;28.30;99.90;;;;;;5069926;28;20056;-64
2023/06/18 07:10:12;;;;;;;9.65;5.90;;;27.70;99.90;;;;;;5070088;28;20043;-64
2023/06/18 07:13:18;;;;;;;12.05;6.78;;;28.00;99.90;;;;;;5069422;28;20063;-64
2023/06/18 07:16:22;;;;;;;10.48;6.88;;;28.10;99.90;;;;;;5069666;28;20052;-64
2023/06/18 07:19:26;;;;;;;9.05;7.03;;;29.70;99.50;;;;;;5070089;28;20048;-60
2023/06/18 07:22:30;;;;;;;11.02;6.50;;;30.30;98.00;;;;;;5069802;28;20059;-63
2023/06/18 07:25:34;;;;;;;8.95;6.13;;;30.60;98.30;;;;;;5070173;28;20035;-64
2023/06/18 07:28:38;;;;;;;6.95;6.15;;;31.10;97.50;;;;;;5069840;28;20597;-64
2023/06/18 07:31:42;;;;;;;9.25;6.03;;;31.40;97.70;;;;;;5069656;28;20051;-64
2023/06/18 07:34:45;;;;;;;8.32;6.20;;;31.80;97.10;;;;;;5069950;28;20051;-65
2023/06/18 07:37:50;;;;;;;7.90;5.50;;;29.80;97.30;;;;;;5069555;28;20044;-61
2023/06/18 07:40:53;;;;;;;6.60;5.22;;;30.60;97.30;;;;;;5069822;28;20047;-64
2023/06/18 07:43:57;;;;;;;9.57;5.47;;;31.00;96.80;;;;;;5069857;28;20517;-64
2023/06/18 07:47:02;;;;;;;10.07;6.10;;;31.60;96.90;;;;;;5069278;28;20521;-63
2023/06/18 07:50:07;;;;;;;8.25;5.82;;;31.00;95.70;;;;;;5069312;28;20035;-61
2023/06/18 07:53:11;;;;;;;6.57;5.68;;;29.20;97.50;;;;;;5069522;28;20047;-59
2023/06/18 07:56:16;;;;;;;5.97;5.38;;;29.30;98.20;;;;;;5070685;28;20040;-64
2023/06/18 07:59:21;;;;;;;8.52;5.68;;;30.30;97.50;;;;;;5073647;28;20110;-64
2023/06/18 08:02:25;;;;;;;7.85;6.10;;;30.90;97.10;;;;;;5073232;28;20411;-64
2023/06/18 08:05:29;;;;;;;9.77;5.65;;;31.00;96.60;;;;;;5073454;28;20032;-59
2023/06/18 08:08:33;;;;;;;7.10;5.90;;;31.20;96.50;;;;;;5072909;28;20044;-64
2023/06/18 08:11:37;;;;;;;6.78;5.32;;;31.80;95.70;;;;;;5073292;28;20418;-63
2023/06/18 08:14:44;;;;;;;5.97;5.25;;;33.80;94.70;;;;;;5073069;28;20517;-66
2023/06/18 08:17:48;;;;;;;8.48;5.25;;;34.10;93.30;;;;;;5073131;28;20051;-63
2023/06/18 08:20:54;;;;;;;6.80;6.10;;;34.90;92.90;;;;;;5072988;28;20060;-64
2023/06/18 08:23:58;;;;;;;6.63;5.25;;;35.60;92.80;;;;;;5073284;28;20040;-62
2023/06/18 08:27:02;;;;;;;7.15;5.50;;;36.20;92.00;;;;;;5072978;28;20035;-64
2023/06/18 08:30:06;;;;;;;8.13;5.65;;;34.80;92.20;;;;;;5073055;28;20214;-65
2023/06/18 08:33:10;;;;;;;11.18;6.53;;;35.60;91.90;;;;;;5073008;28;20115;-65
2023/06/18 08:36:14;;;;;;;9.32;5.93;;;35.70;91.40;;;;;;5073136;28;20052;-64
2023/06/18 08:39:18;;;;;;;8.35;5.70;;;34.90;91.60;;;;;;5072863;28;20059;-63
2023/06/18 08:42:22;;;;;;;8.30;5.78;;;36.20;91.60;;;;;;5072995;28;20047;-63
2023/06/18 08:45:27;;;;;;;6.38;5.50;;;37.30;91.00;;;;;;5073095;28;20044;-65
2023/06/18 08:48:35;;;;;;;8.45;5.88;;;36.40;91.30;;;;;;5073053;28;20051;-64
2023/06/18 08:51:41;;;;;;;9.77;5.95;;;37.40;90.30;;;;;;5072882;28;20403;-65
2023/06/18 08:54:49;;;;;;;5.90;5.30;;;38.20;89.10;;;;;;5073134;28;20411;-64
2023/06/18 08:58:01;;;;;;;9.52;6.82;;;38.60;88.70;;;;;;5072972;28;20048;-64
2023/06/18 09:01:06;;;;;;;8.10;6.10;;;36.30;90.10;;;;;;5072927;28;20057;-64
2023/06/18 09:04:12;;;;;;;7.78;5.30;;;36.60;90.80;;;;;;5072999;28;20040;-65
2023/06/18 09:07:16;;;;;;;8.23;6.03;;;35.40;92.10;;;;;;5071220;28;20043;-61
2023/06/18 09:10:21;;;;;;;12.95;6.15;;;36.70;91.90;;;;;;5072317;28;20048;-65
2023/06/18 09:13:25;;;;;;;15.80;7.38;;;37.90;89.40;;;;;;5071812;28;20040;-65
2023/06/18 09:16:30;;;;;;;9.25;5.70;;;38.10;90.10;;;;;;5072006;28;20051;-64
2023/06/18 09:19:34;;;;;;;9.68;5.43;;;37.20;89.70;;;;;;5071789;28;20406;-65
2023/06/18 09:22:46;;;;;;;7.80;4.60;;;37.60;87.70;;;;;;5071778;28;20044;-61
2023/06/18 09:25:54;;;;;;;8.02;4.85;;;38.20;89.50;;;;;;5071998;28;20048;-65
2023/06/18 09:29:03;;;;;;;7.72;4.88;;;38.10;88.90;;;;;;5071748;28;20043;-65
2023/06/18 09:32:09;;;;;;;8.13;4.80;;;38.30;88.00;;;;;;5071719;28;20051;-64
2023/06/18 09:35:15;;;;;;;5.03;4.53;;;33.50;89.30;;;;;;5071871;28;20407;-65
2023/06/18 09:38:19;;;;;;;6.75;4.82;;;34.10;90.10;;;;;;5071494;28;20044;-60
2023/06/18 09:41:27;;;;;;;7.43;4.75;;;34.90;89.40;;;;;;5071471;28;20518;-64
2023/06/18 09:44:32;;;;;;;6.53;4.75;;;36.60;88.90;;;;;;5071719;28;20407;-64
2023/06/18 09:47:41;;;;;;;6.22;4.35;;;38.20;86.80;;;;;;5071447;28;20411;-64
2023/06/18 09:50:45;;;;;;;7.85;4.70;;;37.50;86.00;;;;;;5071534;28;20044;-65
2023/06/18 09:53:58;;;;;;;5.38;3.95;;;38.40;85.00;;;;;;5070729;28;20055;-63
2023/06/18 09:57:03;;;;;;;5.38;4.20;;;39.20;85.60;;;;;;5071067;28;20052;-63
2023/06/18 10:00:11;;;;;;;6.78;3.60;;;39.50;84.50;;;;;;5071129;28;20047;-64
2023/06/18 10:03:15;;;;;;;4.22;3.45;;;41.30;82.00;;;;;;5070939;28;20505;-64
2023/06/18 10:06:23;;;;;;;6.50;3.85;;;41.90;80.80;;;;;;5071271;28;20410;-64
2023/06/18 10:09:36;;;;;;;5.20;3.97;;;40.80;79.10;;;;;;5070942;28;20059;-62
2023/06/18 10:12:45;;;;;;;7.15;3.80;;;41.40;78.20;;;;;;5070967;28;20051;-63
2023/06/18 10:15:49;;;;;;;5.30;3.30;;;41.80;78.10;;;;;;5071392;28;20047;-64
2023/06/18 10:19:14;;;;;;;7.03;3.75;;;40.30;75.60;;;;;;5070667;28;20059;-63
2023/06/18 10:22:19;;;;;;;5.95;3.72;;;40.20;74.90;;;;;;5070855;28;20071;-63
2023/06/18 10:25:25;;;;;;;6.35;3.47;;;40.00;75.50;;;;;;5070809;28;20051;-63
2023/06/18 10:28:30;;;;;;;6.68;3.50;;;37.30;71.60;;;;;;5070212;28;20043;-63
2023/06/18 10:31:37;;;;;;;12.32;4.03;;;39.60;77.90;;;;;;5070215;28;20047;-63
2023/06/18 10:34:43;;;;;;;5.10;3.10;;;39.60;76.70;;;;;;5070735;28;20058;-64
2023/06/18 10:37:47;;;;;;;5.97;3.22;;;40.50;72.90;;;;;;5070354;28;20044;-65
2023/06/18 10:41:07;;;;;;;4.80;3.45;;;40.40;75.30;;;;;;5070154;28;20044;-64
2023/06/18 10:44:11;;;;;;;7.05;3.35;;;39.60;71.50;;;;;;5070778;28;20043;-65
2023/06/18 10:47:21;;;;;;;6.55;3.03;;;40.40;74.00;;;;;;5070662;28;20051;-64
2023/06/18 10:50:26;;;;;;;3.45;3.03;;;42.00;73.80;;;;;;5070406;28;20513;-63
2023/06/18 10:53:30;;;;;;;3.70;3.20;;;38.00;66.70;;;;;;5070293;28;20059;-64
2023/06/18 10:56:36;;;;;;;6.55;3.70;;;35.20;74.00;;;;;;5070183;28;20411;-64
2023/06/18 10:59:45;;;;;;;6.95;3.83;;;36.60;76.50;;;;;;5070330;28;20556;-64
2023/06/18 11:02:58;;;;;;;7.00;3.40;;;38.40;74.70;;;;;;5070139;28;20509;-64
2023/06/18 11:06:04;;;;;;;5.53;3.50;;;39.70;74.30;;;;;;5070359;28;20048;-62
2023/06/18 11:09:14;;;;;;;3.53;3.13;;;40.20;72.20;;;;;;5070208;28;20043;-65
2023/06/18 11:12:23;;;;;;;5.07;3.30;;;40.80;71.60;;;;;;5069807;28;20036;-64
2023/06/18 11:15:27;;;;;;;4.30;3.17;;;41.40;70.80;;;;;;5070126;28;20115;-65
2023/06/18 11:18:32;;;;;;;5.97;3.65;;;37.00;73.60;;;;;;5070049;28;20047;-61
2023/06/18 11:21:42;;;;;;;6.80;3.60;;;36.80;73.60;;;;;;5069643;28;20051;-61
2023/06/18 11:24:46;;;;;;;6.23;3.43;;;37.40;74.80;;;;;;5069923;28;20051;-64
2023/06/18 11:27:53;;;;;;;4.55;3.42;;;38.00;73.20;;;;;;5069764;28;20035;-64
2023/06/18 11:30:59;;;;;;;6.20;3.22;;;39.60;71.80;;;;;;5068768;28;20517;-64
2023/06/18 11:34:04;;;;;;;4.88;2.97;;;40.70;71.70;;;;;;5070091;28;20063;-59
2023/06/18 11:37:09;;;;;;;6.35;3.05;;;41.50;68.70;;;;;;5069852;28;20043;-63
2023/06/18 11:40:13;;;;;;;5.07;3.50;;;39.90;67.50;;;;;;5069521;28;20510;-63
2023/06/18 11:43:18;;;;;;;6.15;3.55;;;39.30;69.00;;;;;;5069508;28;20047;-63
2023/06/18 11:46:35;;;;;;;4.10;3.60;;;38.20;71.00;;;;;;5070003;28;20039;-64
2023/06/18 11:49:46;;;;;;;5.90;3.60;;;39.00;73.50;;;;;;5069557;28;20047;-64
2023/06/18 11:52:49;;;;;;;7.07;4.57;;;39.00;73.90;;;;;;5069288;28;20048;-64
2023/06/18 11:55:54;;;;;;;5.05;3.88;;;38.80;74.40;;;;;;5069511;28;20406;-64
2023/06/18 11:58:58;;;;;;;5.93;4.38;;;37.60;76.00;;;;;;5069426;28;20044;-58
2023/06/18 12:02:21;;;;;;;4.38;3.97;;;37.40;74.50;;;;;;5069216;28;20059;-61
2023/06/18 12:05:25;;;;;;;4.47;4.07;;;36.80;76.00;;;;;;5069518;28;20051;-64
2023/06/18 12:08:29;;;;;;;5.10;4.35;;;36.70;75.30;;;;;;5069494;28;20040;-62
2023/06/18 12:12:02;;;;;;;6.90;4.47;;;32.90;79.20;;;;;;5068701;28;20091;-64
2023/06/18 12:15:19;;;;;;;6.50;4.63;;;33.10;80.50;;;;;;5069595;28;20043;-59
2023/06/18 12:18:33;;;;;;;6.00;3.90;;;34.50;79.80;;;;;;5069224;28;20047;-62
2023/06/18 12:21:37;;;;;;;8.13;4.07;;;35.00;82.50;;;;;;5068528;28;20529;-62
2023/06/18 12:24:41;;;;;;;6.22;4.50;;;34.20;80.60;;;;;;5069437;28;20502;-63
2023/06/18 12:27:45;;;;;;;7.07;4.72;;;35.60;79.90;;;;;;5069118;28;20032;-58
2023/06/18 12:30:52;;;;;;;7.95;4.55;;;36.10;79.30;;;;;;5068910;28;20052;-59
2023/06/18 12:33:56;;;;;;;9.60;4.97;;;36.70;78.30;;;;;;5069537;28;20067;-62
2023/06/18 12:37:00;;;;;;;6.13;4.55;;;35.40;81.20;;;;;;5069597;28;20048;-63
2023/06/18 12:40:19;;;;;;;5.03;4.32;;;35.70;79.20;;;;;;5069001;28;20044;-64
2023/06/18 12:43:23;;;;;;;5.07;3.95;;;35.60;81.00;;;;;;5071574;28;20052;-59
2023/06/18 12:46:27;;;;;;;5.43;4.55;;;36.30;78.60;;;;;;5073244;28;20055;-62
2023/06/18 12:49:38;;;;;;;7.50;4.03;;;36.10;77.80;;;;;;5073172;28;20048;-63
2023/06/18 12:52:45;;;;;;;6.18;4.05;;;35.80;81.00;;;;;;5072834;28;20098;-63
2023/06/18 12:55:51;;;;;;;8.18;4.35;;;36.40;81.10;;;;;;5073085;28;20051;-63
2023/06/18 12:58:58;;;;;;;7.03;3.90;;;37.00;79.00;;;;;;5072291;28;20052;-58
2023/06/18 13:02:02;;;;;;;5.43;4.60;;;35.80;79.50;;;;;;5072012;28;20051;-61
2023/06/18 13:05:06;;;;;;;9.80;4.43;;;34.20;80.10;;;;;;5072820;28;20051;-63
2023/06/18 13:08:12;;;;;;;6.35;4.53;;;34.20;80.90;;;;;;5072662;28;20090;-63
2023/06/18 13:11:16;;;;;;;5.15;4.65;;;35.10;80.70;;;;;;5071832;28;20040;-64
2023/06/18 13:14:20;;;;;;;9.45;4.90;;;34.90;81.90;;;;;;5072413;28;20051;-58
2023/06/18 13:17:24;;;;;;;6.70;5.40;;;33.70;82.80;;;;;;5072395;28;20043;-61
2023/06/18 13:20:28;;;;;;;7.32;5.07;;;31.90;83.80;;;;;;5072295;28;20048;-64
2023/06/18 13:23:32;;;;;;;7.57;5.32;;;31.80;84.20;;;;;;5071744;28;20047;-63
2023/06/18 13:26:37;;;;;;;4.85;4.45;;;31.80;83.80;;;;;;5072087;28;20218;-63
2023/06/18 13:29:41;;;;;;;7.00;4.97;;;33.00;81.80;;;;;;5071913;28;20035;-64
2023/06/18 13:32:45;;;;;;;6.32;4.75;;;34.00;80.60;;;;;;5071291;28;20130;-62
2023/06/18 13:35:49;;;;;;;5.05;4.55;;;34.30;80.40;;;;;;5071942;28;20067;-64
2023/06/18 13:38:54;;;;;;;5.97;4.30;;;35.20;80.50;;;;;;5071863;28;20402;-64
2023/06/18 13:41:57;;;;;;;6.97;4.20;;;35.80;80.00;;;;;;5071046;28;20047;-64
2023/06/18 13:45:01;;;;;;;13.15;4.53;;;35.80;79.70;;;;;;5071893;28;20043;-60
2023/06/18 13:48:06;;;;;;;5.63;4.43;;;35.00;78.90;;;;;;5071431;28;20043;-63
2023/06/18 13:51:10;;;;;;;6.30;4.07;;;34.50;79.90;;;;;;5071221;28;20047;-63
2023/06/18 13:54:14;;;;;;;6.78;4.35;;;33.00;80.40;;;;;;5070826;28;20051;-62
2023/06/18 13:57:18;;;;;;;7.68;4.32;;;32.60;80.30;;;;;;5071506;28;20526;-64
2023/06/18 14:00:22;;;;;;;21.92;7.18;;;32.50;80.20;;;;;;5071128;28;20036;-60
2023/06/18 14:03:27;;;;;;;5.00;4.50;;;32.80;84.10;;;;;;5071026;28;20052;-64
2023/06/18 14:06:31;;;;;;;14.35;6.05;;;32.30;80.30;;;;;;5071268;28;20043;-63
2023/06/18 14:09:36;;;;;;;6.07;4.28;;;31.30;81.70;;;;;;5071328;28;20043;-62
2023/06/18 14:12:40;;;;;;;4.97;3.97;;;31.50;80.40;;;;;;5070843;28;20055;-64
2023/06/18 14:15:45;;;;;;;8.43;4.57;;;31.40;80.30;;;;;;5071179;28;20047;-60
2023/06/18 14:18:49;;;;;;;5.40;4.07;;;31.60;82.70;;;;;;5071152;28;20051;-63
2023/06/18 14:21:53;;;;;;;5.15;4.65;;;31.90;82.00;;;;;;5070722;28;20047;-63
2023/06/18 14:24:58;;;;;;;9.02;4.15;;;32.30;80.10;;;;;;5070968;28;20502;-63
2023/06/18 14:28:02;;;;;;;4.85;4.07;;;32.40;81.90;;;;;;5071072;28;20040;-63
2023/06/18 14:31:05;;;;;;;7.30;4.07;;;31.30;75.10;;;;;;5070757;28;20056;-58
2023/06/18 14:34:13;;;;;;;6.90;4.05;;;31.00;79.90;;;;;;5070980;28;20051;-59
2023/06/18 14:37:24;;;;;;;4.55;3.90;;;31.30;79.50;;;;;;5070631;28;20043;-63
2023/06/18 14:40:28;;;;;;;5.93;4.55;;;31.70;80.10;;;;;;5070686;28;20407;-62
2023/06/18 14:43:32;;;;;;;8.07;4.35;;;31.40;75.60;;;;;;5069909;28;20047;-63
2023/06/18 14:46:36;;;;;;;6.38;4.38;;;32.00;79.70;;;;;;5070642;28;20047;-59
2023/06/18 14:49:40;;;;;;;7.25;4.20;;;32.40;75.70;;;;;;5070552;28;20048;-60
2023/06/18 14:52:44;;;;;;;6.40;4.25;;;32.30;78.10;;;;;;5070019;28;20333;-62
2023/06/18 14:55:48;;;;;;;5.97;3.90;;;32.70;77.80;;;;;;5070548;28;20055;-63
2023/06/18 14:58:52;;;;;;;8.48;4.35;;;33.10;75.60;;;;;;5070504;28;20048;-63
2023/06/18 15:01:57;;;;;;;6.43;4.28;;;33.50;80.80;;;;;;5069509;28;20044;-61
2023/06/18 15:05:01;;;;;;;6.43;4.45;;;33.60;78.00;;;;;;5069863;28;20438;-64
2023/06/18 15:08:04;;;;;;;6.10;4.60;;;33.80;77.80;;;;;;5070345;28;20044;-63
2023/06/18 15:11:08;;;;;;;7.82;4.38;;;32.90;76.30;;;;;;5069942;28;20043;-61
2023/06/18 15:14:12;;;;;;;7.35;4.40;;;32.60;80.10;;;;;;5069808;28;20047;-64
2023/06/18 15:17:19;;;;;;;5.03;4.35;;;33.00;77.30;;;;;;5069893;28;20437;-64
2023/06/18 15:20:33;;;;;;;6.40;5.13;;;32.70;77.60;;;;;;5070062;28;20052;-64
2023/06/18 15:23:37;;;;;;;5.45;4.72;;;32.90;80.70;;;;;;5069190;28;20055;-63
2023/06/18 15:26:41;;;;;;;7.63;4.82;;;32.10;80.70;;;;;;5069957;28;20052;-62
2023/06/18 15:29:45;;;;;;;5.57;4.72;;;32.70;80.50;;;;;;5069609;28;20043;-63
2023/06/18 15:32:49;;;;;;;7.90;4.65;;;32.50;85.30;;;;;;5069527;28;20051;-59
2023/06/18 15:35:53;;;;;;;5.63;4.95;;;32.40;83.40;;;;;;5069941;28;20051;-62
2023/06/18 15:38:57;;;;;;;6.82;5.70;;;31.90;81.50;;;;;;5069929;28;20043;-62
2023/06/18 15:42:01;;;;;;;6.72;5.80;;;31.20;82.00;;;;;;5069512;28;20043;-64
2023/06/18 15:45:05;;;;;;;9.90;6.20;;;30.60;85.00;;;;;;5069777;28;20064;-64
2023/06/18 15:48:13;;;;;;;5.80;5.22;;;30.80;85.60;;;;;;5069781;28;20036;-64
2023/06/18 15:51:17;;;;;;;7.53;6.25;;;30.80;84.20;;;;;;5069624;28;20046;-61
2023/06/18 15:54:20;;;;;;;10.65;6.13;;;30.70;86.60;;;;;;5069348;28;20209;-64
2023/06/18 15:57:25;;;;;;;8.10;5.63;;;30.70;86.90;;;;;;5069675;28;20052;-62
2023/06/18 16:00:28;;;;;;;8.20;5.72;;;30.60;85.80;;;;;;5069877;28;20067;-62